Time;durP1;ratioP1;P1;durP2;ratioP2;P2;SDS_P1;SDS_P2;PMS_P1;PMS_P2;Temp;Humidity;BMP_temperature;BMP_pressure;BME280_temperature;BME280_humidity;BME280_pressure;Samples;Min_cycle;Max_cycle;Signal;HPM_P1;HPM_P2
2022/09/29 00:00:36;;;;;;;9.80;1.67;;;;;;;;;;5088468;27;20592;-65
2022/09/29 00:03:02;;;;;;;;;;;;;;;;;;5091411;27;20038;-65
2022/09/29 00:05:29;;;;;;;8.70;1.42;;;;;;;;;;5086380;27;20354;-66
2022/09/29 00:07:55;;;;;;;8.52;1.33;;;;;;;;;;5087529;28;20539;-66
2022/09/29 00:10:22;;;;;;;8.18;1.42;;;;;;;;;;5084944;28;20197;-66
2022/09/29 00:12:48;;;;;;;7.03;1.55;;;;;;;;;;5065447;28;20439;-66
2022/09/29 00:15:14;;;;;;;8.20;1.50;;;;;;;;;;5088922;28;20461;-66
2022/09/29 00:17:40;;;;;;;;;;;;;;;;;;5090317;28;20031;-67
2022/09/29 00:20:07;;;;;;;7.55;1.52;;;;;;;;;;5088931;27;19911;-67
2022/09/29 00:22:33;;;;;;;6.95;1.40;;;;;;;;;;5084479;28;20101;-67
2022/09/29 00:24:59;;;;;;;10.18;1.60;;;;;;;;;;5084183;28;20282;-67
2022/09/29 00:27:25;;;;;;;;;;;;;;;;;;5085537;28;20039;-67
2022/09/29 00:29:52;;;;;;;6.57;1.50;;;;;;;;;;5089220;28;19919;-67
2022/09/29 00:32:17;;;;;;;;;;;;;;;;;;5086520;28;20059;-67
2022/09/29 00:34:44;;;;;;;12.38;1.40;;;;;;;;;;5085884;28;20352;-67
2022/09/29 00:37:10;;;;;;;9.25;1.50;;;;;;;;;;5085184;28;20144;-67
2022/09/29 00:39:36;;;;;;;6.63;1.50;;;;;;;;;;5084121;28;20035;-67
2022/09/29 00:42:02;;;;;;;7.85;1.40;;;;;;;;;;5084819;28;20470;-67
2022/09/29 00:44:28;;;;;;;;;;;;;;;;;;5072781;28;20044;-67
2022/09/29 00:46:57;;;;;;;5.95;1.38;;;;;;;;;;5083823;28;19922;-67
2022/09/29 00:49:23;;;;;;;6.28;1.60;;;;;;;;;;5064237;28;20034;-66
2022/09/29 00:51:54;;;;;;;8.38;1.55;;;;;;;;;;5081596;28;20042;-67
2022/09/29 00:54:20;;;;;;;9.52;1.67;;;;;;;;;;5081558;28;20032;-67
2022/09/29 00:56:47;;;;;;;7.82;1.52;;;;;;;;;;5063569;28;20484;-67
2022/09/29 00:59:16;;;;;;;7.43;1.88;;;;;;;;;;5085851;28;20036;-67
2022/09/29 01:01:42;;;;;;;9.55;1.70;;;;;;;;;;5082317;28;20409;-67
2022/09/29 01:04:08;;;;;;;;;;;;;;;;;;5087528;28;20064;-66
2022/09/29 01:06:40;;;;;;;8.63;1.50;;;;;;;;;;5062605;28;20366;-66
2022/09/29 01:09:08;;;;;;;9.02;1.45;;;;;;;;;;5086776;28;20036;-66
2022/09/29 01:11:34;;;;;;;8.20;1.50;;;;;;;;;;5083480;28;20027;-65
2022/09/29 01:14:03;;;;;;;9.48;1.77;;;;;;;;;;5070399;28;20456;-66
2022/09/29 01:16:30;;;;;;;8.80;1.67;;;;;;;;;;5082981;28;20407;-66
2022/09/29 01:18:57;;;;;;;8.00;1.80;;;;;;;;;;5084507;28;20032;-66
2022/09/29 01:21:24;;;;;;;7.22;1.60;;;;;;;;;;5082028;28;20653;-65
2022/09/29 01:23:50;;;;;;;7.13;1.70;;;;;;;;;;5086197;28;20059;-65
2022/09/29 01:26:23;;;;;;;6.95;1.30;;;;;;;;;;5083303;28;20304;-65
2022/09/29 01:29:01;;;;;;;9.27;1.55;;;;;;;;;;5086522;28;20205;-65
2022/09/29 01:31:30;;;;;;;6.97;1.38;;;;;;;;;;5082151;28;20205;-65
2022/09/29 01:33:59;;;;;;;7.40;1.63;;;;;;;;;;5083571;28;20031;-65
2022/09/29 01:36:44;;;;;;;11.13;1.92;;;;;;;;;;5084132;28;20409;-64
2022/09/29 01:39:19;;;;;;;8.95;2.80;;;;;;;;;;5087490;28;20034;-65
2022/09/29 01:41:48;;;;;;;8.38;2.50;;;;;;;;;;5084018;28;20107;-65
2022/09/29 01:44:26;;;;;;;7.88;2.00;;;;;;;;;;5085057;28;20871;-65
2022/09/29 01:46:56;;;;;;;10.32;1.90;;;;;;;;;;5084860;28;20039;-65
2022/09/29 01:49:23;;;;;;;9.95;1.88;;;;;;;;;;5061048;28;20032;-65
2022/09/29 01:51:49;;;;;;;9.57;1.83;;;;;;;;;;5065167;28;20032;-65
2022/09/29 01:54:15;;;;;;;;;;;;;;;;;;5069157;28;20591;-65
2022/09/29 01:56:48;;;;;;;10.77;1.75;;;;;;;;;;5086469;28;19984;-65
2022/09/29 01:59:32;;;;;;;12.13;1.70;;;;;;;;;;5086347;28;20039;-65
2022/09/29 02:02:02;;;;;;;8.05;1.75;;;;;;;;;;5068727;28;20483;-65
2022/09/29 02:04:32;;;;;;;9.52;1.50;;;;;;;;;;5087613;28;20502;-65
2022/09/29 02:07:04;;;;;;;8.15;1.55;;;;;;;;;;5090561;28;20039;-65
2022/09/29 02:09:34;;;;;;;6.68;1.30;;;;;;;;;;5087067;28;20477;-65
2022/09/29 02:12:01;;;;;;;8.48;1.90;;;;;;;;;;5090714;28;20301;-65
2022/09/29 02:14:32;;;;;;;10.23;1.52;;;;;;;;;;5086672;27;20038;-65
2022/09/29 02:17:02;;;;;;;10.30;2.05;;;;;;;;;;5094937;27;20038;-66
2022/09/29 02:19:30;;;;;;;8.55;2.00;;;;;;;;;;5069259;28;20741;-65
2022/09/29 02:21:57;;;;;;;8.52;1.50;;;;;;;;;;5090750;28;20114;-65
2022/09/29 02:24:24;;;;;;;10.00;1.80;;;;;;;;;;5087552;27;20051;-66
2022/09/29 02:26:50;;;;;;;8.95;1.90;;;;;;;;;;5090975;28;20131;-68
2022/09/29 02:29:16;;;;;;;8.52;1.70;;;;;;;;;;5068449;28;20359;-65
2022/09/29 02:31:43;;;;;;;14.45;2.05;;;;;;;;;;5090567;28;20445;-65
2022/09/29 02:34:11;;;;;;;9.25;1.60;;;;;;;;;;5089763;28;20118;-65
2022/09/29 02:36:56;;;;;;;7.18;1.70;;;;;;;;;;5068891;28;20027;-65
2022/09/29 02:39:26;;;;;;;11.23;1.90;;;;;;;;;;5068883;28;20507;-65
2022/09/29 02:42:07;;;;;;;9.05;1.80;;;;;;;;;;5086547;27;20031;-65
2022/09/29 02:44:52;;;;;;;7.95;1.88;;;;;;;;;;5083039;28;20427;-65
2022/09/29 02:47:37;;;;;;;12.93;2.03;;;;;;;;;;5073290;28;20019;-66
2022/09/29 02:50:22;;;;;;;9.98;1.90;;;;;;;;;;5089140;28;20061;-65
2022/09/29 02:52:48;;;;;;;9.93;1.90;;;;;;;;;;5089410;28;20027;-65
2022/09/29 02:55:33;;;;;;;9.68;1.73;;;;;;;;;;5089110;28;20039;-65
2022/09/29 02:58:03;;;;;;;8.90;1.83;;;;;;;;;;5087503;28;20346;-65
2022/09/29 03:00:29;;;;;;;8.23;1.55;;;;;;;;;;5080311;28;20038;-65
2022/09/29 03:02:55;;;;;;;9.07;2.00;;;;;;;;;;5090040;28;20066;-65
2022/09/29 03:05:22;;;;;;;9.73;1.88;;;;;;;;;;5065293;28;20043;-65
2022/09/29 03:07:48;;;;;;;9.80;1.90;;;;;;;;;;5088817;28;20165;-65
2022/09/29 03:10:15;;;;;;;10.98;2.00;;;;;;;;;;5089624;28;20042;-65
2022/09/29 03:12:41;;;;;;;10.00;2.00;;;;;;;;;;5085721;28;20062;-65
2022/09/29 03:15:10;;;;;;;8.10;1.63;;;;;;;;;;5087870;28;20036;-65
2022/09/29 03:17:36;;;;;;;9.27;2.08;;;;;;;;;;5068713;28;20028;-65
2022/09/29 03:20:02;;;;;;;;;;;;;;;;;;5090268;28;20315;-65
2022/09/29 03:22:28;;;;;;;10.82;2.40;;;;;;;;;;5065517;28;19908;-65
2022/09/29 03:24:54;;;;;;;8.93;1.88;;;;;;;;;;5087616;28;20048;-65
2022/09/29 03:27:20;;;;;;;12.07;2.05;;;;;;;;;;5083908;28;20040;-65
2022/09/29 03:29:46;;;;;;;;;;;;;;;;;;5087954;28;20108;-65
2022/09/29 03:32:12;;;;;;;7.93;1.90;;;;;;;;;;5088702;28;19919;-65
2022/09/29 03:34:38;;;;;;;;;;;;;;;;;;5085872;28;20042;-65
2022/09/29 03:37:04;;;;;;;8.15;1.90;;;;;;;;;;5089852;28;19916;-65
2022/09/29 03:39:30;;;;;;;;;;;;;;;;;;5085200;28;20497;-65
2022/09/29 03:41:57;;;;;;;10.13;1.92;;;;;;;;;;5066444;28;19916;-65
2022/09/29 03:44:23;;;;;;;9.85;1.90;;;;;;;;;;5088135;27;20039;-65
2022/09/29 03:46:48;;;;;;;;;;;;;;;;;;5089473;27;20039;-65
2022/09/29 03:49:15;;;;;;;10.65;2.08;;;;;;;;;;5087056;28;19922;-65
2022/09/29 03:51:41;;;;;;;;;;;;;;;;;;5084595;28;20528;-65
2022/09/29 03:54:07;;;;;;;8.35;1.67;;;;;;;;;;5086844;28;19918;-65
2022/09/29 03:56:33;;;;;;;;;;;;;;;;;;5068314;28;20059;-65
2022/09/29 03:58:59;;;;;;;8.13;2.00;;;;;;;;;;5089647;28;20124;-65
2022/09/29 04:01:25;;;;;;;11.52;2.25;;;;;;;;;;5066243;28;20039;-65
2022/09/29 04:03:51;;;;;;;9.50;2.13;;;;;;;;;;5088939;28;20028;-65
2022/09/29 04:06:17;;;;;;;9.40;2.25;;;;;;;;;;5084239;28;20062;-65
2022/09/29 04:08:43;;;;;;;;;;;;;;;;;;5088137;28;20051;-65
2022/09/29 04:11:09;;;;;;;11.18;1.98;;;;;;;;;;5066321;28;20007;-66
2022/09/29 04:13:35;;;;;;;;;;;;;;;;;;5086327;28;20031;-65
2022/09/29 04:16:03;;;;;;;7.68;1.63;;;;;;;;;;5089104;28;19912;-65
2022/09/29 04:18:30;;;;;;;8.18;1.85;;;;;;;;;;5085434;28;20108;-65
2022/09/29 04:20:59;;;;;;;8.20;1.80;;;;;;;;;;5086231;28;20457;-66
2022/09/29 04:23:26;;;;;;;12.55;2.10;;;;;;;;;;5082983;28;20338;-66
2022/09/29 04:25:52;;;;;;;10.88;2.22;;;;;;;;;;5087121;28;20042;-66
2022/09/29 04:28:18;;;;;;;8.20;1.70;;;;;;;;;;5083972;28;20114;-66
2022/09/29 04:30:44;;;;;;;9.30;2.08;;;;;;;;;;5089224;28;20028;-65
2022/09/29 04:33:10;;;;;;;;;;;;;;;;;;5088599;28;20034;-65
2022/09/29 04:35:36;;;;;;;8.13;1.80;;;;;;;;;;5086174;27;19923;-65
2022/09/29 04:38:02;;;;;;;;;;;;;;;;;;5088974;28;20083;-65
2022/09/29 04:40:28;;;;;;;10.27;1.52;;;;;;;;;;5082529;28;19918;-65
2022/09/29 04:42:54;;;;;;;;;;;;;;;;;;5085859;28;20046;-66
2022/09/29 04:45:20;;;;;;;7.57;1.63;;;;;;;;;;5082557;28;19916;-66
2022/09/29 04:47:46;;;;;;;;;;;;;;;;;;5085087;28;20330;-66
2022/09/29 04:50:12;;;;;;;7.00;1.30;;;;;;;;;;5084696;28;19907;-66
2022/09/29 04:52:38;;;;;;;;;;;;;;;;;;5083081;28;20028;-66
2022/09/29 04:55:04;;;;;;;3.75;0.75;;;;;;;;;;5083775;28;19919;-65
2022/09/29 04:57:30;;;;;;;4.45;0.73;;;;;;;;;;5062684;28;20408;-65
2022/09/29 04:59:57;;;;;;;5.43;0.80;;;;;;;;;;5087329;28;21079;-65
2022/09/29 05:02:23;;;;;;;;;;;;;;;;;;5062932;28;20042;-65
2022/09/29 05:04:50;;;;;;;6.15;1.05;;;;;;;;;;5081038;28;19943;-66
2022/09/29 05:07:17;;;;;;;3.03;0.80;;;;;;;;;;5080598;28;20035;-65
2022/09/29 05:09:43;;;;;;;5.30;0.73;;;;;;;;;;5086934;27;20365;-66
2022/09/29 05:12:09;;;;;;;3.08;0.80;;;;;;;;;;5086698;28;20023;-66
2022/09/29 05:14:35;;;;;;;8.60;1.52;;;;;;;;;;5081489;28;20036;-66
2022/09/29 05:17:01;;;;;;;;;;;;;;;;;;5065583;28;20074;-66
2022/09/29 05:19:28;;;;;;;6.07;1.40;;;;;;;;;;5065005;28;19919;-66
2022/09/29 05:21:55;;;;;;;6.72;1.40;;;;;;;;;;5083307;28;20043;-66
2022/09/29 05:24:21;;;;;;;6.93;1.30;;;;;;;;;;5082902;28;20082;-66
2022/09/29 05:26:47;;;;;;;;;;;;;;;;;;5083638;28;20058;-65
2022/09/29 05:29:13;;;;;;;8.10;1.65;;;;;;;;;;5084043;28;20409;-66
2022/09/29 05:31:39;;;;;;;;;;;;;;;;;;5080946;28;20488;-65
2022/09/29 05:34:05;;;;;;;6.22;1.30;;;;;;;;;;5081297;28;19911;-65
2022/09/29 05:36:31;;;;;;;5.93;1.27;;;;;;;;;;5079484;28;20036;-67
2022/09/29 05:38:57;;;;;;;;;;;;;;;;;;5065524;28;20035;-65
2022/09/29 05:41:23;;;;;;;9.02;1.17;;;;;;;;;;5079668;28;19912;-66
2022/09/29 05:43:49;;;;;;;;;;;;;;;;;;5067323;28;20026;-65
2022/09/29 05:46:17;;;;;;;6.35;1.30;;;;;;;;;;5062089;28;19915;-66
2022/09/29 05:48:47;;;;;;;6.35;1.00;;;;;;;;;;5081833;28;20032;-65
2022/09/29 05:51:14;;;;;;;6.18;0.98;;;;;;;;;;5081129;28;20044;-66
2022/09/29 05:53:41;;;;;;;9.82;1.17;;;;;;;;;;5083589;28;20044;-66
2022/09/29 05:56:08;;;;;;;6.03;1.10;;;;;;;;;;5083909;28;20478;-66
2022/09/29 05:58:35;;;;;;;7.40;1.30;;;;;;;;;;5079252;28;20042;-65
2022/09/29 06:01:04;;;;;;;4.40;0.90;;;;;;;;;;5081745;28;20041;-65
2022/09/29 06:03:32;;;;;;;6.03;0.98;;;;;;;;;;5082496;28;20032;-66
2022/09/29 06:05:58;;;;;;;4.97;1.17;;;;;;;;;;5085613;28;20085;-66
2022/09/29 06:08:24;;;;;;;4.55;1.10;;;;;;;;;;5081496;28;20038;-65
2022/09/29 06:10:50;;;;;;;;;;;;;;;;;;5083278;28;20421;-66
2022/09/29 06:13:16;;;;;;;9.38;1.90;;;;;;;;;;5062835;28;19911;-66
2022/09/29 06:15:42;;;;;;;;;;;;;;;;;;5086798;28;20035;-66
2022/09/29 06:18:08;;;;;;;10.60;1.83;;;;;;;;;;5065683;28;20365;-66
2022/09/29 06:20:37;;;;;;;12.82;2.25;;;;;;;;;;5077362;28;20036;-65
2022/09/29 06:23:03;;;;;;;13.20;3.15;;;;;;;;;;5080398;28;20036;-67
2022/09/29 06:25:29;;;;;;;;;;;;;;;;;;5078655;28;20150;-66
2022/09/29 06:27:55;;;;;;;15.15;3.80;;;;;;;;;;5080843;28;19926;-65
2022/09/29 06:30:21;;;;;;;;;;;;;;;;;;5081010;27;20303;-65
2022/09/29 06:32:47;;;;;;;22.40;6.93;;;;;;;;;;5082898;28;20507;-66
2022/09/29 06:37:58;;;;;;;16.80;4.72;;;;;;;;;;5083177;28;20771;-65
2022/09/29 06:40:26;;;;;;;;;;;;;;;;;;5079075;28;20549;-66
2022/09/29 06:42:52;;;;;;;20.38;6.75;;;;;;;;;;5083249;28;19951;-65
2022/09/29 06:45:18;;;;;;;19.40;7.13;;;;;;;;;;5077344;28;20035;-65
2022/09/29 06:47:44;;;;;;;18.85;4.68;;;;;;;;;;5085241;28;20029;-66
2022/09/29 06:50:10;;;;;;;13.93;3.50;;;;;;;;;;5085036;28;20199;-66
2022/09/29 06:52:36;;;;;;;;;;;;;;;;;;5086821;28;20027;-66
2022/09/29 06:55:03;;;;;;;12.15;2.72;;;;;;;;;;5085785;28;19918;-66
2022/09/29 06:57:29;;;;;;;10.60;2.40;;;;;;;;;;5065833;28;20032;-65
2022/09/29 06:59:55;;;;;;;;;;;;;;;;;;5087972;27;20036;-66
2022/09/29 07:02:21;;;;;;;13.15;2.35;;;;;;;;;;5086017;28;19919;-65
2022/09/29 07:04:47;;;;;;;;;;;;;;;;;;5087288;27;20024;-68
2022/09/29 07:07:14;;;;;;;8.93;1.90;;;;;;;;;;5085437;28;19984;-66
2022/09/29 07:09:41;;;;;;;10.80;2.30;;;;;;;;;;5084955;28;20490;-66
2022/09/29 07:12:07;;;;;;;11.88;2.20;;;;;;;;;;5068406;28;20019;-66
2022/09/29 07:14:33;;;;;;;4.32;0.93;;;;;;;;;;5065590;28;20413;-67
2022/09/29 07:17:00;;;;;;;;;;;;;;;;;;5087328;27;20024;-66
2022/09/29 07:19:27;;;;;;;10.03;1.50;;;;;;;;;;5086110;28;19912;-66
2022/09/29 07:21:54;;;;;;;7.43;1.60;;;;;;;;;;5071345;28;20534;-66
2022/09/29 07:24:20;;;;;;;6.22;1.42;;;;;;;;;;5085864;27;20054;-66
2022/09/29 07:26:46;;;;;;;;;;;;;;;;;;5068096;28;20345;-66
2022/09/29 07:29:12;;;;;;;6.57;1.30;;;;;;;;;;5084416;27;19911;-66
2022/09/29 07:31:39;;;;;;;4.20;1.00;;;;;;;;;;5082792;28;20080;-66
2022/09/29 07:34:05;;;;;;;7.10;1.00;;;;;;;;;;5086201;28;20027;-66
2022/09/29 07:36:32;;;;;;;;;;;;;;;;;;5081398;27;20035;-66
2022/09/29 07:38:58;;;;;;;18.00;2.25;;;;;;;;;;5089799;27;20356;-66
2022/09/29 07:41:24;;;;;;;9.90;1.50;;;;;;;;;;5081732;28;20767;-65
2022/09/29 07:43:50;;;;;;;8.73;1.23;;;;;;;;;;5069112;28;20026;-66
2022/09/29 07:46:16;;;;;;;7.82;1.00;;;;;;;;;;5084581;28;20051;-65
2022/09/29 07:48:43;;;;;;;5.10;0.93;;;;;;;;;;5084865;27;20031;-65
2022/09/29 07:51:17;;;;;;;7.40;1.38;;;;;;;;;;5080765;28;20120;-65
2022/09/29 07:53:43;;;;;;;8.20;1.58;;;;;;;;;;5084140;27;20054;-66
2022/09/29 07:56:11;;;;;;;6.82;1.17;;;;;;;;;;5083100;28;20040;-66
2022/09/29 07:58:37;;;;;;;6.20;0.90;;;;;;;;;;5082973;28;20158;-66
2022/09/29 08:01:05;;;;;;;10.18;1.30;;;;;;;;;;5069078;28;20074;-66
2022/09/29 08:03:31;;;;;;;7.97;1.10;;;;;;;;;;5081940;27;20037;-66
2022/09/29 08:05:58;;;;;;;5.85;0.80;;;;;;;;;;5067016;28;20036;-66
2022/09/29 08:08:24;;;;;;;4.57;0.90;;;;;;;;;;5081113;27;20088;-65
2022/09/29 08:10:51;;;;;;;6.55;0.80;;;;;;;;;;5082626;28;20442;-66
2022/09/29 08:13:17;;;;;;;5.25;1.00;;;;;;;;;;5065997;28;20027;-65
2022/09/29 08:15:44;;;;;;;6.45;1.15;;;;;;;;;;5088520;27;20074;-65
2022/09/29 08:18:10;;;;;;;3.95;0.80;;;;;;;;;;5085421;28;20537;-65
2022/09/29 08:20:36;;;;;;;4.72;1.00;;;;;;;;;;5079568;28;20725;-66
2022/09/29 08:23:02;;;;;;;7.78;1.05;;;;;;;;;;5083524;28;20559;-65
2022/09/29 08:25:28;;;;;;;6.88;1.25;;;;;;;;;;5084116;28;20043;-65
2022/09/29 08:27:54;;;;;;;3.80;0.82;;;;;;;;;;5084707;27;20074;-65
2022/09/29 08:30:21;;;;;;;5.13;1.00;;;;;;;;;;5083428;28;20102;-65
2022/09/29 08:32:56;;;;;;;4.75;1.00;;;;;;;;;;5088129;27;20036;-65
2022/09/29 08:35:22;;;;;;;7.88;0.80;;;;;;;;;;5079314;28;20032;-66
2022/09/29 08:37:48;;;;;;;8.57;1.23;;;;;;;;;;5087438;27;20035;-66
2022/09/29 08:40:14;;;;;;;10.35;1.30;;;;;;;;;;5085614;28;20023;-66
2022/09/29 08:43:00;;;;;;;8.25;1.13;;;;;;;;;;5085726;27;20040;-65
2022/09/29 08:45:29;;;;;;;6.82;1.00;;;;;;;;;;5084117;28;20031;-65
2022/09/29 08:48:00;;;;;;;6.05;0.88;;;;;;;;;;5069227;28;20557;-65
2022/09/29 08:50:26;;;;;;;9.10;1.10;;;;;;;;;;5079041;28;20028;-64
2022/09/29 08:52:58;;;;;;;9.15;1.70;;;;;;;;;;5083796;28;20031;-65
2022/09/29 08:55:27;;;;;;;7.60;1.05;;;;;;;;;;5084999;27;20122;-66
2022/09/29 08:57:58;;;;;;;10.85;2.47;;;;;;;;;;5087278;28;20031;-64
2022/09/29 09:00:42;;;;;;;7.57;1.10;;;;;;;;;;5082017;28;20478;-66
2022/09/29 09:03:14;;;;;;;6.40;1.20;;;;;;;;;;5084239;27;20413;-64
2022/09/29 09:06:00;;;;;;;10.75;1.20;;;;;;;;;;5082248;28;20089;-65
2022/09/29 09:08:41;;;;;;;6.80;1.17;;;;;;;;;;5083121;27;20150;-64
2022/09/29 09:11:14;;;;;;;9.32;0.95;;;;;;;;;;5065248;28;20035;-64
2022/09/29 09:13:40;;;;;;;4.50;0.82;;;;;;;;;;5085269;28;20523;-64
2022/09/29 09:16:33;;;;;;;6.95;1.23;;;;;;;;;;5068272;28;20028;-65
2022/09/29 09:18:59;;;;;;;7.03;1.20;;;;;;;;;;5043185;28;20493;-64
2022/09/29 09:21:35;;;;;;;5.43;1.10;;;;;;;;;;5080180;28;20036;-65
2022/09/29 09:24:11;;;;;;;12.25;1.58;;;;;;;;;;5066072;28;20051;-65
2022/09/29 09:26:44;;;;;;;5.32;1.10;;;;;;;;;;5068146;28;20038;-65
2022/09/29 09:29:20;;;;;;;5.43;0.93;;;;;;;;;;5085574;28;20063;-65
2022/09/29 09:31:52;;;;;;;6.38;0.90;;;;;;;;;;5065300;28;20236;-65
2022/09/29 09:34:28;;;;;;;7.47;1.20;;;;;;;;;;5060003;28;20414;-65
2022/09/29 09:36:57;;;;;;;3.55;0.63;;;;;;;;;;5086780;28;20288;-65
2022/09/29 09:39:30;;;;;;;4.50;0.90;;;;;;;;;;5084634;28;20067;-65
2022/09/29 09:41:57;;;;;;;5.35;0.90;;;;;;;;;;5066762;28;20600;-65
2022/09/29 09:44:33;;;;;;;4.43;0.80;;;;;;;;;;5083666;28;20455;-65
2022/09/29 09:47:18;;;;;;;5.25;0.85;;;;;;;;;;5082308;28;20519;-65
2022/09/29 09:49:47;;;;;;;5.85;0.80;;;;;;;;;;5087656;28;20020;-65
2022/09/29 09:52:16;;;;;;;4.43;0.98;;;;;;;;;;5088471;28;20042;-65
2022/09/29 09:54:46;;;;;;;11.32;1.20;;;;;;;;;;5081001;28;20374;-65
2022/09/29 09:57:23;;;;;;;4.40;0.80;;;;;;;;;;5082028;28;20138;-65
2022/09/29 09:59:56;;;;;;;5.10;0.73;;;;;;;;;;5084124;28;20023;-65
2022/09/29 10:02:23;;;;;;;5.78;0.95;;;;;;;;;;5064581;28;20032;-65
2022/09/29 10:04:53;;;;;;;7.53;1.00;;;;;;;;;;5066397;28;20047;-65
2022/09/29 10:07:20;;;;;;;7.00;0.90;;;;;;;;;;5081229;28;20031;-65
2022/09/29 10:09:46;;;;;;;8.20;1.20;;;;;;;;;;5085402;28;20350;-65
2022/09/29 10:12:20;;;;;;;6.72;1.00;;;;;;;;;;5066050;28;20377;-65
2022/09/29 10:14:54;;;;;;;3.97;0.77;;;;;;;;;;5085961;28;20039;-65
2022/09/29 10:17:23;;;;;;;4.53;0.70;;;;;;;;;;5082208;28;20035;-65
2022/09/29 10:19:54;;;;;;;5.10;0.85;;;;;;;;;;5064856;28;20129;-66
2022/09/29 10:22:21;;;;;;;7.15;1.20;;;;;;;;;;5063169;28;20016;-66
2022/09/29 10:24:47;;;;;;;4.68;0.90;;;;;;;;;;5086170;28;20499;-66
2022/09/29 10:27:20;;;;;;;3.60;0.60;;;;;;;;;;5088225;28;20042;-65
2022/09/29 10:29:48;;;;;;;4.45;0.73;;;;;;;;;;5089479;28;20775;-65
2022/09/29 10:32:17;;;;;;;9.90;1.05;;;;;;;;;;5093440;27;20023;-65
2022/09/29 10:34:48;;;;;;;3.55;0.82;;;;;;;;;;5085979;28;20118;-65
2022/09/29 10:37:27;;;;;;;3.80;0.60;;;;;;;;;;5085856;28;20130;-66
2022/09/29 10:40:22;;;;;;;3.67;0.70;;;;;;;;;;5086826;28;20055;-65
2022/09/29 10:42:50;;;;;;;3.60;0.65;;;;;;;;;;5027281;28;20364;-65
2022/09/29 10:45:17;;;;;;;3.67;0.68;;;;;;;;;;5023747;28;20055;-65
2022/09/29 10:47:47;;;;;;;3.35;0.73;;;;;;;;;;5024144;28;20048;-65
2022/09/29 10:50:13;;;;;;;12.70;1.50;;;;;;;;;;5008097;28;20056;-64
2022/09/29 10:52:42;;;;;;;3.97;0.80;;;;;;;;;;5024371;28;20041;-64
2022/09/29 10:55:15;;;;;;;3.92;0.45;;;;;;;;;;5027003;28;20024;-64
2022/09/29 10:57:42;;;;;;;4.07;0.82;;;;;;;;;;5010933;28;20111;-65
2022/09/29 11:00:25;;;;;;;4.40;0.77;;;;;;;;;;5027404;28;20029;-65
2022/09/29 11:02:52;;;;;;;3.75;0.60;;;;;;;;;;5025116;28;20025;-65
2022/09/29 11:05:22;;;;;;;5.85;0.98;;;;;;;;;;5022078;28;20035;-65
2022/09/29 11:07:50;;;;;;;4.72;0.63;;;;;;;;;;5023902;28;20061;-65
2022/09/29 11:10:28;;;;;;;7.50;0.80;;;;;;;;;;5023841;28;20040;-65
2022/09/29 11:12:58;;;;;;;4.35;0.55;;;;;;;;;;5026514;28;20105;-64
2022/09/29 11:15:28;;;;;;;6.57;1.08;;;;;;;;;;5023344;28;20398;-65
2022/09/29 11:17:54;;;;;;;4.47;0.77;;;;;;;;;;5028169;28;20204;-65
2022/09/29 11:20:23;;;;;;;6.72;1.10;;;;;;;;;;5083235;27;20048;-65
2022/09/29 11:22:49;;;;;;;4.20;0.90;;;;;;;;;;5088077;28;20413;-65
2022/09/29 11:25:21;;;;;;;5.60;0.90;;;;;;;;;;5056068;28;20170;-65
2022/09/29 11:28:06;;;;;;;4.25;0.80;;;;;;;;;;5068906;28;20588;-65
2022/09/29 11:30:47;;;;;;;4.35;0.60;;;;;;;;;;5066369;28;20043;-66
2022/09/29 11:33:19;;;;;;;5.95;0.82;;;;;;;;;;5069042;28;20020;-65
2022/09/29 11:35:45;;;;;;;4.57;0.90;;;;;;;;;;5068983;28;20057;-65
2022/09/29 11:38:19;;;;;;;10.27;1.10;;;;;;;;;;5071067;28;20032;-65
2022/09/29 11:40:47;;;;;;;7.28;1.10;;;;;;;;;;5067863;28;20338;-66
2022/09/29 11:43:26;;;;;;;4.50;0.70;;;;;;;;;;5051171;28;20055;-66
2022/09/29 11:46:11;;;;;;;4.72;0.70;;;;;;;;;;5051772;28;20043;-65
2022/09/29 11:48:53;;;;;;;5.65;0.73;;;;;;;;;;5064884;28;20372;-65
2022/09/29 11:51:37;;;;;;;9.15;1.20;;;;;;;;;;5060474;28;20031;-65
2022/09/29 11:54:19;;;;;;;6.50;1.05;;;;;;;;;;5051844;28;20481;-65
2022/09/29 11:57:04;;;;;;;3.78;0.80;;;;;;;;;;5049300;28;20110;-65
2022/09/29 11:59:54;;;;;;;6.72;1.00;;;;;;;;;;5064835;28;20030;-65
2022/09/29 12:02:26;;;;;;;6.38;0.70;;;;;;;;;;5055172;28;20117;-64
2022/09/29 12:04:58;;;;;;;3.50;0.60;;;;;;;;;;5066660;28;20041;-65
2022/09/29 12:07:24;;;;;;;3.22;0.73;;;;;;;;;;5062457;28;20036;-67
2022/09/29 12:10:09;;;;;;;7.10;0.82;;;;;;;;;;5063103;28;20020;-65
2022/09/29 12:12:54;;;;;;;5.93;0.95;;;;;;;;;;5058568;28;20035;-65
2022/09/29 12:15:23;;;;;;;8.40;1.45;;;;;;;;;;5059091;28;20020;-65
2022/09/29 12:17:55;;;;;;;3.22;0.70;;;;;;;;;;5053854;28;20398;-65
2022/09/29 12:20:24;;;;;;;4.22;0.80;;;;;;;;;;5063505;28;20600;-65
2022/09/29 12:22:52;;;;;;;3.65;0.80;;;;;;;;;;5062879;28;20032;-66
2022/09/29 12:25:22;;;;;;;6.13;0.82;;;;;;;;;;5059893;28;20043;-65
2022/09/29 12:27:49;;;;;;;7.40;1.10;;;;;;;;;;5062218;28;20553;-66
2022/09/29 12:30:15;;;;;;;6.40;0.98;;;;;;;;;;5069992;28;20028;-66
2022/09/29 12:32:45;;;;;;;5.38;0.90;;;;;;;;;;5069270;28;20393;-65
2022/09/29 12:35:17;;;;;;;5.00;0.85;;;;;;;;;;5070892;28;20060;-66
2022/09/29 12:38:06;;;;;;;6.30;1.10;;;;;;;;;;5087343;28;20036;-66
2022/09/29 12:40:35;;;;;;;3.60;0.90;;;;;;;;;;5087939;27;20042;-66
2022/09/29 12:43:04;;;;;;;6.43;1.20;;;;;;;;;;5073660;28;20043;-65
2022/09/29 12:45:45;;;;;;;6.38;1.25;;;;;;;;;;5086163;28;20501;-66
2022/09/29 12:48:23;;;;;;;4.65;1.00;;;;;;;;;;5069245;28;20031;-66
2022/09/29 12:50:54;;;;;;;4.57;1.10;;;;;;;;;;5070668;28;20061;-66
2022/09/29 12:53:43;;;;;;;8.00;1.20;;;;;;;;;;5090032;27;20066;-65
2022/09/29 12:56:19;;;;;;;2.63;0.60;;;;;;;;;;5076369;27;20144;-66
2022/09/29 12:58:55;;;;;;;4.13;0.90;;;;;;;;;;5075200;27;20095;-66
2022/09/29 13:01:21;;;;;;;5.55;1.00;;;;;;;;;;5086485;27;20490;-66
2022/09/29 13:03:47;;;;;;;8.40;1.00;;;;;;;;;;5075121;28;20032;-66
2022/09/29 13:06:19;;;;;;;7.57;1.00;;;;;;;;;;5094686;27;20063;-65
2022/09/29 13:08:55;;;;;;;6.75;1.00;;;;;;;;;;5092297;27;20023;-65
2022/09/29 13:11:30;;;;;;;6.18;1.10;;;;;;;;;;5086920;27;20800;-65
2022/09/29 13:14:05;;;;;;;6.10;0.90;;;;;;;;;;5089853;27;20066;-66
2022/09/29 13:16:50;;;;;;;5.47;0.90;;;;;;;;;;5084106;27;20027;-66
2022/09/29 13:19:48;;;;;;;4.53;1.00;;;;;;;;;;5084856;28;20431;-66
2022/09/29 13:22:20;;;;;;;3.47;0.70;;;;;;;;;;4990843;28;20419;-66
2022/09/29 13:24:47;;;;;;;9.70;1.20;;;;;;;;;;4989748;28;20775;-65
2022/09/29 13:27:32;;;;;;;3.95;0.80;;;;;;;;;;4982616;28;20041;-66
2022/09/29 13:30:11;;;;;;;11.18;1.50;;;;;;;;;;4990103;28;20038;-66
2022/09/29 13:32:40;;;;;;;6.82;1.17;;;;;;;;;;4985878;28;20037;-66
2022/09/29 13:35:11;;;;;;;7.70;0.98;;;;;;;;;;4985181;28;20047;-66
2022/09/29 13:38:03;;;;;;;4.75;0.90;;;;;;;;;;4980465;28;20558;-65
2022/09/29 13:40:30;;;;;;;6.00;0.90;;;;;;;;;;4969255;28;20038;-65
2022/09/29 13:42:58;;;;;;;4.55;0.82;;;;;;;;;;4986143;28;20540;-65
2022/09/29 13:45:26;;;;;;;6.57;0.75;;;;;;;;;;4982490;28;20124;-65
2022/09/29 13:47:54;;;;;;;3.53;0.80;;;;;;;;;;4986947;28;20049;-65
2022/09/29 13:50:39;;;;;;;5.00;0.95;;;;;;;;;;4985633;28;20041;-65
2022/09/29 13:53:30;;;;;;;5.88;1.00;;;;;;;;;;4985070;28;20030;-67
2022/09/29 13:56:09;;;;;;;4.07;0.75;;;;;;;;;;4982550;28;20049;-65
2022/09/29 13:58:47;;;;;;;4.60;0.90;;;;;;;;;;5051930;28;22292;-64
2022/09/29 14:01:28;;;;;;;4.10;0.85;;;;;;;;;;5076458;28;20043;-66
2022/09/29 14:03:55;;;;;;;5.15;0.85;;;;;;;;;;5084933;27;20046;-66
2022/09/29 14:06:29;;;;;;;5.25;0.70;;;;;;;;;;5085377;28;20438;-65
2022/09/29 14:09:04;;;;;;;6.03;1.00;;;;;;;;;;5070088;28;20031;-65
2022/09/29 14:11:35;;;;;;;4.32;0.65;;;;;;;;;;5065147;28;20469;-65
2022/09/29 14:14:05;;;;;;;3.25;0.70;;;;;;;;;;5089166;28;20032;-65
2022/09/29 14:16:34;;;;;;;2.97;0.68;;;;;;;;;;5055002;28;20083;-65
2022/09/29 14:19:02;;;;;;;3.50;0.73;;;;;;;;;;5083174;28;20443;-65
2022/09/29 14:21:46;;;;;;;4.75;0.90;;;;;;;;;;5065861;28;20031;-66
2022/09/29 14:24:30;;;;;;;5.50;0.80;;;;;;;;;;5079855;27;20522;-66
2022/09/29 14:27:17;;;;;;;6.53;1.13;;;;;;;;;;5047055;28;20047;-65
2022/09/29 14:29:55;;;;;;;7.13;1.08;;;;;;;;;;5054134;28;20307;-65
2022/09/29 14:32:23;;;;;;;4.10;1.02;;;;;;;;;;5064123;28;20569;-65
2022/09/29 14:34:52;;;;;;;6.95;1.40;;;;;;;;;;5048524;28;20024;-65
2022/09/29 14:37:20;;;;;;;5.75;0.90;;;;;;;;;;5068448;28;20023;-65
2022/09/29 14:40:27;;;;;;;6.22;1.50;;;;;;;;;;5063261;28;20749;-66
2022/09/29 14:42:34;;;;;;;4.15;0.90;;;;;;;;;;5062521;28;20034;-65
2022/09/29 14:53:47;;;;;;;6.30;1.42;;;;;;;;;;4959753;28;20030;-64
2022/09/29 14:56:28;;;;;;;6.57;1.08;;;;;;;;;;4962470;28;20513;-65
2022/09/29 14:58:59;;;;;;;6.95;1.00;;;;;;;;;;4969211;28;20489;-67
2022/09/29 15:01:36;;;;;;;5.18;1.10;;;;;;;;;;4968277;28;20143;-65
2022/09/29 15:04:12;;;;;;;3.30;0.80;;;;;;;;;;4956294;28;20365;-65
2022/09/29 15:06:51;;;;;;;4.55;0.90;;;;;;;;;;4958977;28;20491;-67
2022/09/29 15:09:19;;;;;;;6.13;1.50;;;;;;;;;;4955559;28;20038;-65
2022/09/29 15:12:01;;;;;;;5.75;1.50;;;;;;;;;;4973031;28;20034;-65
2022/09/29 15:14:28;;;;;;;7.38;1.30;;;;;;;;;;4959826;28;20050;-65
2022/09/29 15:17:13;;;;;;;7.97;1.50;;;;;;;;;;4967611;28;20054;-65
2022/09/29 15:19:52;;;;;;;4.77;1.37;;;;;;;;;;4966559;28;20136;-65
2022/09/29 15:22:37;;;;;;;6.80;1.70;;;;;;;;;;4966330;28;20041;-65